OOLO2: Oologah Lake

Data processed at Wed May 22 2019 23:50


All information presented herein is the property of the government of the United States of America and may be revised or deleted at any time without prior notice.
Dissemination of this information without the expressed written consent of the Public Affairs Office, Tulsa District U.S. Army Corps of Engineers is strictly prohibited.
These data are gathered electronically and, as presented, have not undergone any form of quality control. These data are not guaranteed to be valid or correct.
Go to home page.
Go to station list.
Go to home page.

Upstream stations:

Downstream station:
Previous Day
Next Day
Current Day
    
SHEF ID:       OOLO2     Oologah Lake
STATION TYPE:  RESERVOIR
Flood Pool:  Bottom =   638.00, Top =   661.00

               PRECIP     STAGE  RIV-FLOW ELEVATION   STORAGE   TW-ELEV    INFLOW   RELEASE  AIR-TEMP  WIND-DIRWIND-SPEED REL-HUMID SOLAR-RAD   VOLTAGE  BAT-LOAD
                   in        ft       cfs        ft     ac-ft        ft       cfs       cfs         F       deg       mph         %      W/m2      volt      volt
              Ccp-Rev   Ccp-Rev   Ccp-Rev   Ccp-Rev   Ccp-Rev   Ccp-Rev  Rev-Regi  Rev-Regi   Ccp-Rev   Ccp-Rev   Ccp-Rev   Ccp-Rev   Ccp-Rev   Ccp-Rev   Ccp-Rev
(US/Central)
05/22 00:00      0.00     13.75      2962    658.38   1263337      ----     69361      3110     66.90    138.00      6.70     72.89      0.00     13.37     13.29
05/22 01:00      0.00     13.51      2737    658.47   1268071      ----     71623      2850     66.34    143.80      6.50     76.65      0.00     13.37     13.29
05/22 02:00      0.00     13.27      2518    658.58   1273856      ----     75206      2628     65.44    146.00      5.60     78.39      0.00     13.37     13.29
05/22 03:00      0.00     13.07      2341    658.69   1279642      ----     75006      2430     65.25    147.40      4.40     75.35      0.00     13.37     13.29
05/22 04:00      0.00     12.89      2186    658.82   1286479      ----     74969      2264     64.63    148.50      4.00     75.69      0.00     13.37     13.29
05/22 05:00      0.00     12.71      2035    658.95   1293316      ----     73889      2111     63.32    190.30      3.70     77.11      0.00     13.37     13.29
05/22 06:00      0.00     12.56      1912    659.04   1298107      ----     70216      1974     62.29    175.00      2.70     78.66      0.00     13.37     13.29
05/22 07:00      0.00     12.44      1816    659.14   1303509      ----     64014      1864     62.28    160.10      2.40     79.03      9.10     13.37     13.29
05/22 08:00      0.00     12.33      1730    659.22   1307831      ----     60446      1773     62.33    144.00      4.40     80.38     72.00     13.37     13.29
05/22 09:00      0.00     12.23      1652    659.30   1312153      ----     61852      1691     63.73    144.30      3.60     79.69    139.10     13.37     13.29
05/22 10:00      0.00     12.19      1622    659.40   1317555      ----     59180      1637     65.98    148.00      4.30     75.55    252.80     13.38     13.29
05/22 11:00      0.00     12.14      1584    659.50   1322957      ----     60451      1603     67.84    155.00      3.20     77.92    234.50     13.37     13.13
05/22 12:00      0.00     12.13      1576    659.58   1327279      ----     55207      1580     70.99    140.00      4.80     79.84    438.20     13.37     13.29
05/22 13:00      0.00     12.16      1599    659.67   1332141      ----     59138      1588     76.17    160.60      6.30     77.90    594.30     13.36     13.29
05/22 14:00      0.00     12.22      1645    659.71   1334302      ----     56557      1622     78.98    166.10      6.80     73.55    652.20     13.37     13.29
05/22 15:00      0.00     12.31      1714    659.84   1341325      ----     57963      1679     81.23    168.10      7.80     66.45    493.40     13.36     13.29
05/22 16:00      0.00     12.45      1824    659.92   1345647      ----     58469      1769     83.03    169.40      7.90     63.91    581.50     13.37     13.29
05/22 17:00      0.00     12.65      1986    660.01   1350523      ----     71144      1905     83.61    155.40      6.30     66.20    517.00     13.36     13.29
05/22 18:00      0.06     14.01      3215    660.10   1355511      ----     64241      2600     80.31    123.60      5.00     79.49     60.70     13.36     13.29
05/22 19:00      0.18     15.32      4718    660.23   1362716      ----     69396      3966     77.74    191.40      4.20     91.36     22.40     13.36     13.29
05/22 20:00      0.14     16.07      5683    660.30   1366595      ----     74677      5200     75.47    169.20      6.50     91.29      8.00     13.35     13.29
05/22 21:00      0.00     16.64      6467    660.41   1372691      ----     75676      6075     70.74     75.30      7.70     89.21      0.00     13.36     13.29
05/22 22:00      0.00     17.16      7217    660.53   1379342      ----     74910      6842     71.96     52.20      7.60     90.83      0.00     13.35     13.29
05/22 23:00      0.16     17.66      7966    660.62   1384329      ----     74197      7592     74.39    339.20      8.20     87.50      0.00     13.37     13.29